createdAt,value
2023-03-24T00:01:53.521Z,13.20
2023-03-24T00:04:21.716Z,13.30
2023-03-24T00:06:49.400Z,13.30
2023-03-24T00:09:16.978Z,13.20
2023-03-24T00:11:44.176Z,13.30
2023-03-24T00:14:14.582Z,13.30
2023-03-24T00:16:42.655Z,13.20
2023-03-24T00:19:11.480Z,13.30
2023-03-24T00:21:38.465Z,13.20
2023-03-24T00:24:07.977Z,13.20
2023-03-24T00:26:39.855Z,13.20
2023-03-24T00:29:09.285Z,13.20
2023-03-24T00:31:40.134Z,13.20
2023-03-24T00:34:10.400Z,13.20
2023-03-24T00:36:37.655Z,13.20
2023-03-24T00:39:06.320Z,13.30
2023-03-24T00:41:33.468Z,13.30
2023-03-24T00:44:03.793Z,13.30
2023-03-24T00:46:30.738Z,13.30
2023-03-24T00:49:05.934Z,13.30
2023-03-24T00:51:36.224Z,13.30
2023-03-24T00:54:03.621Z,13.30
2023-03-24T00:56:32.404Z,13.30
2023-03-24T00:59:02.321Z,13.30
2023-03-24T01:01:36.511Z,13.30
2023-03-24T01:04:06.066Z,13.30
2023-03-24T01:06:36.549Z,13.30
2023-03-24T01:09:05.669Z,13.30
2023-03-24T01:11:38.651Z,13.40
2023-03-24T01:14:06.447Z,13.40
2023-03-24T01:16:33.466Z,13.40
2023-03-24T01:19:00.600Z,13.40
2023-03-24T01:21:27.918Z,13.40
2023-03-24T01:23:55.004Z,13.40
2023-03-24T01:26:21.838Z,13.50
2023-03-24T01:28:48.815Z,13.50
2023-03-24T01:31:16.113Z,13.40
2023-03-24T01:33:43.071Z,13.50
2023-03-24T01:36:11.070Z,13.40
2023-03-24T01:38:38.517Z,13.50
2023-03-24T01:41:06.645Z,13.50
2023-03-24T01:43:35.442Z,13.50
2023-03-24T01:46:15.210Z,13.50
2023-03-24T01:48:44.755Z,13.50
2023-03-24T01:51:28.207Z,13.50
2023-03-24T01:54:02.499Z,13.50
2023-03-24T01:56:33.473Z,13.50
2023-03-24T01:59:03.893Z,13.60
2023-03-24T02:01:31.143Z,13.50
2023-03-24T02:04:04.507Z,13.50
2023-03-24T02:06:35.328Z,13.50
2023-03-24T02:09:02.757Z,13.50
2023-03-24T02:11:32.463Z,13.50
2023-03-24T02:13:59.799Z,13.60
2023-03-24T02:17:11.411Z,13.50
2023-03-24T02:20:15.358Z,13.60
2023-03-24T02:23:17.365Z,13.60
2023-03-24T02:26:14.395Z,13.50
2023-03-24T02:28:48.560Z,13.60
2023-03-24T02:31:48.101Z,13.50
2023-03-24T02:34:30.593Z,13.50
2023-03-24T02:37:27.806Z,13.50
2023-03-24T02:40:33.602Z,13.40
2023-03-24T02:43:09.062Z,13.50
2023-03-24T02:45:59.242Z,13.40
2023-03-24T02:48:44.204Z,13.40
2023-03-24T02:51:18.304Z,13.30
2023-03-24T02:53:54.015Z,13.30
2023-03-24T02:56:38.573Z,13.20
2023-03-24T02:59:07.720Z,13.20
2023-03-24T03:01:58.871Z,13.10
2023-03-24T03:04:46.259Z,13.10
2023-03-24T03:07:16.875Z,13.00
2023-03-24T03:10:24.276Z,13.00
2023-03-24T03:12:56.392Z,12.90
2023-03-24T03:15:28.599Z,12.90
2023-03-24T03:18:02.929Z,12.80
2023-03-24T03:20:34.812Z,12.70
2023-03-24T03:23:07.148Z,12.70
2023-03-24T03:25:42.174Z,12.70
2023-03-24T03:28:12.100Z,12.60
2023-03-24T03:30:43.688Z,12.60
2023-03-24T03:33:24.653Z,12.50
2023-03-24T03:36:14.755Z,12.50
2023-03-24T03:38:53.760Z,12.40
2023-03-24T03:41:21.105Z,12.30
2023-03-24T03:43:49.700Z,12.30
2023-03-24T03:46:18.172Z,12.30
2023-03-24T03:48:46.117Z,12.20
2023-03-24T03:51:15.021Z,12.20
2023-03-24T03:53:58.460Z,12.20
2023-03-24T03:56:28.006Z,12.10
2023-03-24T03:58:55.350Z,12.10
2023-03-24T04:01:26.141Z,12.00
2023-03-24T04:04:13.342Z,12.00
2023-03-24T04:07:09.508Z,11.90
2023-03-24T04:09:52.408Z,11.80
2023-03-24T04:12:34.553Z,11.80
2023-03-24T04:15:10.063Z,11.80
2023-03-24T04:17:42.722Z,11.70
2023-03-24T04:20:26.851Z,11.70
2023-03-24T04:23:04.423Z,11.60
2023-03-24T04:26:01.776Z,11.60
2023-03-24T04:29:14.018Z,11.60
2023-03-24T04:31:51.542Z,11.60
2023-03-24T04:34:45.145Z,11.60
2023-03-24T04:37:19.693Z,11.60
2023-03-24T04:39:49.816Z,11.50
2023-03-24T04:42:52.743Z,11.50
2023-03-24T04:45:25.587Z,11.50
2023-03-24T04:47:58.821Z,11.50
2023-03-24T04:50:36.430Z,11.50
2023-03-24T04:53:05.775Z,11.50
2023-03-24T04:55:50.761Z,11.40
2023-03-24T04:58:19.269Z,11.40
2023-03-24T05:00:46.119Z,11.40
2023-03-24T05:03:15.109Z,11.40
2023-03-24T05:05:45.708Z,11.40
2023-03-24T05:08:13.156Z,11.30
2023-03-24T05:10:40.956Z,11.30
2023-03-24T05:13:08.513Z,11.30
2023-03-24T05:15:36.382Z,11.30
2023-03-24T05:18:04.859Z,11.30
2023-03-24T05:20:32.241Z,11.20
2023-03-24T05:22:59.147Z,11.20
2023-03-24T05:25:26.031Z,11.20
2023-03-24T05:27:52.890Z,11.20
2023-03-24T05:30:20.563Z,11.10
2023-03-24T05:32:47.605Z,11.10
2023-03-24T05:35:14.795Z,11.20
2023-03-24T05:37:41.633Z,11.10
2023-03-24T05:40:09.203Z,11.10
2023-03-24T05:42:36.134Z,11.10
2023-03-24T05:45:03.815Z,11.10
2023-03-24T05:47:30.857Z,11.10
2023-03-24T05:49:57.703Z,11.20
2023-03-24T05:52:25.202Z,11.10
2023-03-24T05:54:52.999Z,11.20
2023-03-24T05:57:21.202Z,11.20
2023-03-24T05:59:48.168Z,11.20
2023-03-24T06:02:15.343Z,11.20
2023-03-24T06:04:46.335Z,11.30
2023-03-24T06:07:13.532Z,11.20
2023-03-24T06:09:42.613Z,11.20
2023-03-24T06:12:11.354Z,11.30
2023-03-24T06:14:38.733Z,11.30
2023-03-24T06:17:07.274Z,11.30
2023-03-24T06:19:34.818Z,11.30
2023-03-24T06:22:03.149Z,11.30
2023-03-24T06:24:30.592Z,11.30
2023-03-24T06:27:02.205Z,11.30
2023-03-24T06:29:30.736Z,11.30
2023-03-24T06:31:57.658Z,11.40
2023-03-24T06:34:25.376Z,11.40
2023-03-24T06:36:52.851Z,11.40
2023-03-24T06:39:19.812Z,11.40
2023-03-24T06:41:46.733Z,11.40
2023-03-24T06:44:13.772Z,11.40
2023-03-24T06:46:40.727Z,11.50
2023-03-24T06:49:08.115Z,11.50
2023-03-24T06:51:35.623Z,11.50
2023-03-24T06:54:03.278Z,11.50
2023-03-24T06:56:30.617Z,11.50
2023-03-24T06:58:57.832Z,11.60
2023-03-24T07:01:24.751Z,11.60
2023-03-24T07:03:51.772Z,11.60
2023-03-24T07:06:19.294Z,11.60
2023-03-24T07:08:46.067Z,11.60
2023-03-24T07:11:12.886Z,11.70
2023-03-24T07:13:39.754Z,11.70
2023-03-24T07:16:07.319Z,11.70
2023-03-24T07:18:34.187Z,11.70
2023-03-24T07:21:01.575Z,11.70
2023-03-24T07:23:28.438Z,11.80
2023-03-24T07:25:55.238Z,11.80
2023-03-24T07:28:22.050Z,11.80
2023-03-24T07:30:48.936Z,11.80
2023-03-24T07:33:15.707Z,11.90
2023-03-24T07:35:43.121Z,11.90
2023-03-24T07:38:10.614Z,11.90
2023-03-24T07:40:38.120Z,11.90
2023-03-24T07:43:06.641Z,12.00
2023-03-24T07:45:33.721Z,12.00
2023-03-24T07:48:02.290Z,12.00
2023-03-24T07:50:29.778Z,12.00
2023-03-24T07:52:59.389Z,12.10
2023-03-24T07:55:27.325Z,12.10
2023-03-24T07:57:54.217Z,12.10
2023-03-24T08:00:21.835Z,12.10
2023-03-24T08:02:52.059Z,12.20
2023-03-24T08:05:23.237Z,12.20
2023-03-24T08:07:55.564Z,12.20
2023-03-24T08:10:25.620Z,12.30
2023-03-24T08:12:52.666Z,12.30
2023-03-24T08:15:19.852Z,12.30
2023-03-24T08:17:48.798Z,12.40
2023-03-24T08:20:15.997Z,12.40
2023-03-24T08:22:45.594Z,12.50
2023-03-24T08:25:13.204Z,12.50
2023-03-24T08:27:40.783Z,12.50
2023-03-24T08:30:10.582Z,12.50
2023-03-24T08:32:37.871Z,12.60
2023-03-24T08:35:05.193Z,12.60
2023-03-24T08:37:32.206Z,12.70
2023-03-24T08:40:05.535Z,12.70
2023-03-24T08:42:32.418Z,12.70
2023-03-24T08:44:59.173Z,12.80
2023-03-24T08:47:26.293Z,12.80
2023-03-24T08:49:58.111Z,12.90
2023-03-24T08:52:26.055Z,12.90
2023-03-24T08:54:53.233Z,13.00
2023-03-24T08:57:19.965Z,13.00
2023-03-24T08:59:47.348Z,13.10
2023-03-24T09:02:15.332Z,13.10
2023-03-24T09:04:45.943Z,13.20
2023-03-24T09:07:13.038Z,13.20
2023-03-24T09:09:40.155Z,13.30
2023-03-24T09:12:07.327Z,13.30
2023-03-24T09:14:34.181Z,13.30
2023-03-24T09:17:01.132Z,13.20
2023-03-24T09:19:27.980Z,13.20
2023-03-24T09:21:54.999Z,13.30
2023-03-24T09:24:21.768Z,13.30
2023-03-24T09:26:48.537Z,13.30
2023-03-24T09:29:15.580Z,13.30
2023-03-24T09:31:42.451Z,13.30
2023-03-24T09:34:09.305Z,13.40
2023-03-24T09:36:36.181Z,13.40
2023-03-24T09:39:03.146Z,13.50
2023-03-24T09:41:33.873Z,13.50
2023-03-24T09:44:11.774Z,13.50
2023-03-24T09:46:52.059Z,13.60
2023-03-24T09:49:27.584Z,13.60
2023-03-24T09:52:03.712Z,13.60
2023-03-24T09:54:48.114Z,13.70
2023-03-24T09:57:28.598Z,13.60
2023-03-24T09:59:56.103Z,13.60
2023-03-24T10:02:23.412Z,13.60
2023-03-24T10:04:50.534Z,13.60
2023-03-24T10:07:39.676Z,13.70
2023-03-24T10:10:20.121Z,13.70
2023-03-24T10:12:48.606Z,13.70
2023-03-24T10:15:37.832Z,13.80
2023-03-24T10:18:27.140Z,13.90
2023-03-24T10:21:12.087Z,13.90
2023-03-24T10:24:00.321Z,14.00
2023-03-24T10:26:49.730Z,14.00
2023-03-24T10:29:28.850Z,14.00
2023-03-24T10:32:06.734Z,14.00
2023-03-24T10:34:34.728Z,14.00
2023-03-24T10:37:04.245Z,14.10
2023-03-24T10:39:44.271Z,14.10
2023-03-24T10:42:24.530Z,14.10
2023-03-24T10:44:52.924Z,14.10
2023-03-24T10:47:25.126Z,14.10
2023-03-24T10:49:58.401Z,14.10
2023-03-24T10:52:25.510Z,14.00
2023-03-24T10:54:58.692Z,14.00
2023-03-24T10:57:27.202Z,14.00
2023-03-24T11:00:00.713Z,14.00
2023-03-24T11:02:31.042Z,14.10
2023-03-24T11:04:58.165Z,14.10
2023-03-24T11:07:35.379Z,14.10
2023-03-24T11:10:11.158Z,14.10
2023-03-24T11:12:40.425Z,14.10
2023-03-24T11:15:22.137Z,14.10
2023-03-24T11:18:03.808Z,14.10
2023-03-24T11:20:37.188Z,14.10
2023-03-24T11:23:30.328Z,14.10
2023-03-24T11:26:14.370Z,14.20
2023-03-24T11:28:47.093Z,14.30
2023-03-24T11:31:30.451Z,14.40
2023-03-24T11:33:57.837Z,14.40
2023-03-24T11:36:31.088Z,14.50
2023-03-24T11:39:11.960Z,14.50
2023-03-24T11:41:58.753Z,14.40
2023-03-24T11:44:26.215Z,14.30
2023-03-24T11:46:58.447Z,14.30
2023-03-24T11:49:31.964Z,14.20
2023-03-24T11:51:58.760Z,14.20
2023-03-24T11:54:33.927Z,14.20
2023-03-24T11:57:08.009Z,14.30
2023-03-24T11:59:57.986Z,14.30
2023-03-24T12:02:34.919Z,14.20
2023-03-24T12:05:33.101Z,14.20
2023-03-24T12:08:28.515Z,14.20
2023-03-24T12:10:59.565Z,14.20
2023-03-24T12:13:33.284Z,14.20
2023-03-24T12:16:18.840Z,14.30
2023-03-24T12:18:54.676Z,14.20
2023-03-24T12:21:31.384Z,14.20
2023-03-24T12:23:59.371Z,14.30
2023-03-24T12:26:29.603Z,14.40
2023-03-24T12:29:34.122Z,14.50
2023-03-24T12:32:24.222Z,14.60
2023-03-24T12:35:13.511Z,14.70
2023-03-24T12:37:58.269Z,14.80
2023-03-24T12:41:03.394Z,14.80
2023-03-24T12:43:49.108Z,14.80
2023-03-24T12:49:50.681Z,14.80
2023-03-24T12:52:36.292Z,14.70
2023-03-24T12:55:42.034Z,14.70
2023-03-24T12:58:35.244Z,14.60
2023-03-24T13:01:06.122Z,14.60
2023-03-24T13:04:01.275Z,14.50
2023-03-24T13:06:34.018Z,14.50
2023-03-24T13:09:00.724Z,14.40
2023-03-24T13:11:36.287Z,14.40
2023-03-24T13:14:10.404Z,14.30
2023-03-24T13:16:39.133Z,14.20
2023-03-24T13:19:16.267Z,14.20
2023-03-24T13:21:44.791Z,14.20
2023-03-24T13:24:15.025Z,14.20
2023-03-24T13:26:54.077Z,14.10
2023-03-24T13:30:00.124Z,14.10
2023-03-24T13:32:44.916Z,14.10
2023-03-24T13:35:29.761Z,14.10
2023-03-24T13:38:09.793Z,14.10
2023-03-24T13:40:40.282Z,14.20
2023-03-24T13:43:23.668Z,14.20
2023-03-24T13:45:52.276Z,14.30
2023-03-24T13:48:30.491Z,14.30
2023-03-24T13:51:04.159Z,14.30
2023-03-24T13:53:36.017Z,14.20
2023-03-24T13:56:05.635Z,14.20
2023-03-24T13:58:49.333Z,14.20
2023-03-24T14:01:31.457Z,14.10
2023-03-24T14:04:19.687Z,14.00
2023-03-24T14:06:51.857Z,13.90
2023-03-24T14:09:29.325Z,13.80
2023-03-24T14:12:09.472Z,13.80
2023-03-24T14:14:57.726Z,13.70
2023-03-24T14:17:24.499Z,13.70
2023-03-24T14:20:02.530Z,13.80
2023-03-24T14:22:39.518Z,14.20
2023-03-24T14:25:22.027Z,14.50
2023-03-24T14:27:51.839Z,14.90
2023-03-24T14:30:30.419Z,15.30
2023-03-24T14:32:59.685Z,15.70
2023-03-24T14:35:37.063Z,16.10
2023-03-24T14:38:24.938Z,16.40
2023-03-24T14:41:05.455Z,16.70
2023-03-24T14:43:53.169Z,16.90
2023-03-24T14:46:19.913Z,16.90
2023-03-24T14:48:52.647Z,17.00
2023-03-24T14:51:26.585Z,17.10
2023-03-24T14:53:58.381Z,17.20
2023-03-24T14:56:29.430Z,17.30
2023-03-24T14:59:08.635Z,17.50
2023-03-24T15:01:36.054Z,17.60
2023-03-24T15:04:08.442Z,17.70
2023-03-24T15:06:47.222Z,17.70
2023-03-24T15:09:17.149Z,17.60
2023-03-24T15:11:46.293Z,17.50
2023-03-24T15:14:23.511Z,17.50
2023-03-24T15:17:09.067Z,17.40
2023-03-24T15:19:36.096Z,17.20
2023-03-24T15:22:10.433Z,16.80
2023-03-24T15:24:38.343Z,16.50
2023-03-24T15:27:07.904Z,16.20
2023-03-24T15:29:35.848Z,16.00
2023-03-24T15:32:03.494Z,15.80
2023-03-24T15:34:40.888Z,15.70
2023-03-24T15:37:21.727Z,15.60
2023-03-24T15:40:01.835Z,15.50
2023-03-24T15:42:33.067Z,15.50
2023-03-24T15:45:11.173Z,15.50
2023-03-24T15:47:41.968Z,15.60
2023-03-24T15:50:33.498Z,15.60
2023-03-24T15:53:07.173Z,15.60
2023-03-24T15:55:36.723Z,15.50
2023-03-24T15:58:25.496Z,15.40
2023-03-24T16:00:54.592Z,15.30
2023-03-24T16:03:26.611Z,15.20
2023-03-24T16:05:55.867Z,15.20
2023-03-24T16:08:43.591Z,15.20
2023-03-24T16:11:13.015Z,15.10
2023-03-24T16:13:44.918Z,15.00
2023-03-24T16:16:14.831Z,15.00
2023-03-24T16:18:47.003Z,15.00
2023-03-24T16:21:22.401Z,15.00
2023-03-24T16:23:51.000Z,14.90
2023-03-24T16:26:23.396Z,14.80
2023-03-24T16:28:51.560Z,14.70
2023-03-24T16:31:25.803Z,14.60
2023-03-24T16:33:55.935Z,14.50
2023-03-24T16:36:27.799Z,14.40
2023-03-24T16:38:56.343Z,14.40
2023-03-24T16:41:23.481Z,14.30
2023-03-24T16:43:51.039Z,14.30
2023-03-24T16:46:26.573Z,14.30
2023-03-24T16:48:54.209Z,14.30
2023-03-24T16:51:21.416Z,14.40
2023-03-24T16:53:49.580Z,14.50
2023-03-24T16:56:21.114Z,14.60
2023-03-24T16:58:48.653Z,14.70
2023-03-24T17:01:33.477Z,14.70
2023-03-24T17:04:16.228Z,14.70
2023-03-24T17:06:49.058Z,14.60
2023-03-24T17:09:16.146Z,14.50
2023-03-24T17:11:48.047Z,14.40
2023-03-24T17:14:15.552Z,14.30
2023-03-24T17:16:44.834Z,14.20
2023-03-24T17:19:13.505Z,14.10
2023-03-24T17:22:05.933Z,14.00
2023-03-24T17:24:41.613Z,13.90
2023-03-24T17:27:16.027Z,13.80
2023-03-24T17:29:42.761Z,13.80
2023-03-24T17:32:11.905Z,13.70
2023-03-24T17:34:38.702Z,13.70
2023-03-24T17:37:06.345Z,13.60
2023-03-24T17:39:33.158Z,13.60
2023-03-24T17:42:01.435Z,13.50
2023-03-24T17:44:28.748Z,13.50
2023-03-24T17:46:55.960Z,13.40
2023-03-24T17:49:22.708Z,13.50
2023-03-24T17:51:49.440Z,13.40
2023-03-24T17:54:16.702Z,13.40
2023-03-24T17:56:43.718Z,13.30
2023-03-24T17:59:10.574Z,13.30
2023-03-24T18:01:39.353Z,13.30
2023-03-24T18:04:06.480Z,13.30
2023-03-24T18:06:33.683Z,13.30
2023-03-24T18:09:00.747Z,13.20
2023-03-24T18:11:27.566Z,13.20
2023-03-24T18:13:54.406Z,13.10
2023-03-24T18:16:22.357Z,13.10
2023-03-24T18:18:50.711Z,13.00
2023-03-24T18:21:18.201Z,13.00
2023-03-24T18:23:46.664Z,12.90
2023-03-24T18:26:13.908Z,12.90
2023-03-24T18:28:42.138Z,12.90
2023-03-24T18:31:12.801Z,12.80
2023-03-24T18:33:42.671Z,12.80
2023-03-24T18:36:10.529Z,12.80
2023-03-24T18:38:37.659Z,12.70
2023-03-24T18:41:06.553Z,12.70
2023-03-24T18:43:37.603Z,12.70
2023-03-24T18:46:09.296Z,12.70
2023-03-24T18:48:41.901Z,12.60
2023-03-24T18:51:09.047Z,12.60
2023-03-24T18:53:36.362Z,12.60
2023-03-24T18:56:04.409Z,12.50
2023-03-24T18:58:31.332Z,12.50
2023-03-24T19:00:59.113Z,12.50
2023-03-24T19:03:27.397Z,12.40
2023-03-24T19:05:54.452Z,12.40
2023-03-24T19:08:22.209Z,12.40
2023-03-24T19:10:49.408Z,12.40
2023-03-24T19:13:17.160Z,12.30
2023-03-24T19:15:48.469Z,12.30
2023-03-24T19:18:15.725Z,12.30
2023-03-24T19:20:42.808Z,12.30
2023-03-24T19:23:09.716Z,12.30
2023-03-24T19:25:36.607Z,12.30
2023-03-24T19:28:03.874Z,12.30
2023-03-24T19:30:30.823Z,12.20
2023-03-24T19:32:58.075Z,12.20
2023-03-24T19:35:25.238Z,12.20
2023-03-24T19:37:52.158Z,12.10
2023-03-24T19:40:19.083Z,12.10
2023-03-24T19:42:46.697Z,12.10
2023-03-24T19:45:16.003Z,12.10
2023-03-24T19:47:43.984Z,12.00
2023-03-24T19:50:11.626Z,12.00
2023-03-24T19:52:38.917Z,12.00
2023-03-24T19:55:06.678Z,12.00
2023-03-24T19:57:33.781Z,12.00
2023-03-24T20:00:00.765Z,11.90
2023-03-24T20:02:28.550Z,11.90
2023-03-24T20:04:56.254Z,11.90
2023-03-24T20:07:23.790Z,11.90
2023-03-24T20:09:50.964Z,11.90
2023-03-24T20:12:17.939Z,11.90
2023-03-24T20:14:45.043Z,11.90
2023-03-24T20:17:18.870Z,11.90
2023-03-24T20:19:46.591Z,11.90
2023-03-24T20:22:14.370Z,11.90
2023-03-24T20:24:42.718Z,11.90
2023-03-24T20:27:09.839Z,11.80
2023-03-24T20:29:38.043Z,11.80
2023-03-24T20:32:05.301Z,11.80
2023-03-24T20:34:33.424Z,11.70
2023-03-24T20:37:00.512Z,11.70
2023-03-24T20:39:27.421Z,11.70
2023-03-24T20:41:54.312Z,11.70
2023-03-24T20:44:21.197Z,11.70
2023-03-24T20:46:48.216Z,11.70
2023-03-24T20:49:16.739Z,11.60
2023-03-24T20:51:44.882Z,11.60
2023-03-24T20:54:12.486Z,11.60
2023-03-24T20:56:39.322Z,11.60
2023-03-24T20:59:06.784Z,11.50
2023-03-24T21:01:36.117Z,11.50
2023-03-24T21:04:09.014Z,11.50
2023-03-24T21:06:39.380Z,11.50
2023-03-24T21:09:06.196Z,11.50
2023-03-24T21:11:33.458Z,11.50
2023-03-24T21:14:01.336Z,11.50
2023-03-24T21:16:28.917Z,11.50
2023-03-24T21:18:56.090Z,11.50
2023-03-24T21:21:23.191Z,11.50
2023-03-24T21:23:52.717Z,11.50
2023-03-24T21:26:19.685Z,11.50
2023-03-24T21:28:46.548Z,11.50
2023-03-24T21:31:28.777Z,11.50
2023-03-24T21:33:56.663Z,11.50
2023-03-24T21:36:25.306Z,11.50
2023-03-24T21:38:54.061Z,11.50
2023-03-24T21:41:22.011Z,11.50
2023-03-24T21:43:51.285Z,11.60
2023-03-24T21:46:21.835Z,11.50
2023-03-24T21:48:55.481Z,11.60
2023-03-24T21:51:30.629Z,11.60
2023-03-24T21:54:03.353Z,11.60
2023-03-24T21:56:32.277Z,11.60
2023-03-24T21:58:59.319Z,11.60
2023-03-24T22:01:26.256Z,11.60
2023-03-24T22:03:59.104Z,11.60
2023-03-24T22:06:29.400Z,11.60
2023-03-24T22:08:58.550Z,11.60
2023-03-24T22:11:25.991Z,11.60
2023-03-24T22:13:53.821Z,11.60
2023-03-24T22:16:20.806Z,11.70
2023-03-24T22:18:47.743Z,11.60
2023-03-24T22:21:14.804Z,11.70
2023-03-24T22:23:42.640Z,11.60
2023-03-24T22:26:16.813Z,11.60
2023-03-24T22:28:44.230Z,11.60
2023-03-24T22:31:14.192Z,11.60
2023-03-24T22:33:41.637Z,11.60
2023-03-24T22:36:09.902Z,11.60
2023-03-24T22:38:36.802Z,11.60
2023-03-24T22:41:06.580Z,11.60
2023-03-24T22:43:35.264Z,11.60
2023-03-24T22:46:02.473Z,11.60
2023-03-24T22:48:29.417Z,11.60
2023-03-24T22:50:56.292Z,11.60
2023-03-24T22:53:23.275Z,11.60
2023-03-24T22:55:50.361Z,11.60
2023-03-24T22:58:17.570Z,11.60
2023-03-24T23:00:46.875Z,11.60
2023-03-24T23:03:13.786Z,11.60
2023-03-24T23:05:45.658Z,11.60
2023-03-24T23:08:15.047Z,11.60
2023-03-24T23:10:44.668Z,11.60
2023-03-24T23:13:12.440Z,11.60
2023-03-24T23:15:42.345Z,11.50
2023-03-24T23:18:09.787Z,11.50
2023-03-24T23:20:37.613Z,11.50
2023-03-24T23:23:06.767Z,11.50
2023-03-24T23:25:43.446Z,11.50
2023-03-24T23:28:11.717Z,11.40
2023-03-24T23:30:39.321Z,11.50
2023-03-24T23:33:06.245Z,11.50
2023-03-24T23:35:33.377Z,11.50
2023-03-24T23:38:02.317Z,11.40
2023-03-24T23:40:29.303Z,11.40
2023-03-24T23:42:56.344Z,11.40
2023-03-24T23:45:23.087Z,11.40
2023-03-24T23:47:52.184Z,11.40
2023-03-24T23:50:20.558Z,11.40
2023-03-24T23:52:47.976Z,11.40
2023-03-24T23:55:17.897Z,11.40
2023-03-24T23:57:46.360Z,11.30
